Hosford, Florida
Current Conditions -  °F | °C
As of 9:15 AM on Saturday 22 Nov 2014 (Local Time) from K2J9 Reporting Station
Few Clouds Few Clouds  
Wind Chill: 14°   Ceiling: Unl
Heat Index: 14°   Visibility: 10mi
Dew Point:   Wind: 9mph
Humidity: 72%   Direction: 90°E
Pressure: 30.34"   Gusts: 16mph
Location:  30.39°N, 84.8°W
Report Text: K2J9 221415Z AUTO 09008G14KT 10SM FEW070 14/09 A3034 RMK AO1 P0037
Loading
Personal Weather Stations






























Interactive Weather Map New forecast layout! Learn more

10-Day Weather Forecast

Advertisements
Track Severe Weather on mobile